createdAt,value
2023-02-16T00:06:57.126Z,21.52
2023-02-16T00:11:18.711Z,18.60
2023-02-16T00:15:24.467Z,18.35
2023-02-16T00:19:33.658Z,17.58
2023-02-16T00:23:37.872Z,17.17
2023-02-16T00:27:42.198Z,17.60
2023-02-16T00:31:56.897Z,18.30
2023-02-16T00:36:02.206Z,18.13
2023-02-16T00:40:07.540Z,16.98
2023-02-16T00:44:18.812Z,17.27
2023-02-16T00:48:25.208Z,16.05
2023-02-16T00:52:37.677Z,17.08
2023-02-16T00:56:44.224Z,18.30
2023-02-16T01:00:53.484Z,17.58
2023-02-16T01:05:00.981Z,17.33
2023-02-16T01:09:31.560Z,16.00
2023-02-16T01:13:44.374Z,17.10
2023-02-16T01:17:50.434Z,17.35
2023-02-16T01:21:58.485Z,17.42
2023-02-16T01:26:02.215Z,17.52
2023-02-16T01:30:06.707Z,16.95
2023-02-16T01:34:16.068Z,18.52
2023-02-16T01:38:26.059Z,16.90
2023-02-16T01:42:37.281Z,17.00
2023-02-16T01:50:54.432Z,16.48
2023-02-16T01:55:12.558Z,16.35
2023-02-16T01:59:24.314Z,17.23
2023-02-16T02:03:48.020Z,17.27
2023-02-16T02:07:56.375Z,14.75
2023-02-16T02:12:08.642Z,15.20
2023-02-16T02:16:17.372Z,15.48
2023-02-16T02:20:45.021Z,14.68
2023-02-16T02:25:30.530Z,17.85
2023-02-16T02:30:15.736Z,15.20
2023-02-16T02:34:26.781Z,15.57
2023-02-16T02:38:43.078Z,14.75
2023-02-16T02:42:56.609Z,15.10
2023-02-16T02:47:06.672Z,13.95
2023-02-16T02:51:32.464Z,13.30
2023-02-16T02:56:07.030Z,15.15
2023-02-16T03:00:35.313Z,13.10
2023-02-16T03:04:42.440Z,15.07
2023-02-16T03:09:03.246Z,14.05
2023-02-16T03:13:11.112Z,14.52
2023-02-16T03:17:36.678Z,14.60
2023-02-16T03:22:01.626Z,14.10
2023-02-16T03:26:27.118Z,13.73
2023-02-16T03:30:34.193Z,14.57
2023-02-16T03:34:50.180Z,14.15
2023-02-16T03:38:56.688Z,14.68
2023-02-16T03:43:03.813Z,13.25
2023-02-16T03:47:11.540Z,13.13
2023-02-16T03:51:18.506Z,13.60
2023-02-16T03:55:30.168Z,14.32
2023-02-16T03:59:35.419Z,13.32
2023-02-16T04:03:38.836Z,12.68
2023-02-16T04:07:45.878Z,14.88
2023-02-16T04:12:06.845Z,14.65
2023-02-16T04:16:11.689Z,13.70
2023-02-16T04:28:22.363Z,13.20
2023-02-16T04:32:27.312Z,12.85
2023-02-16T04:40:33.447Z,12.88
2023-02-16T04:44:36.878Z,14.57
2023-02-16T04:48:41.642Z,13.48
2023-02-16T04:52:45.863Z,13.13
2023-02-16T04:56:49.489Z,13.52
2023-02-16T05:00:52.948Z,15.25
2023-02-16T05:04:57.868Z,13.82
2023-02-16T05:13:21.782Z,13.68
2023-02-16T05:17:26.969Z,14.52
2023-02-16T05:21:35.701Z,15.48
2023-02-16T05:25:39.053Z,14.60
2023-02-16T05:29:42.117Z,16.55
2023-02-16T05:33:45.479Z,16.05
2023-02-16T05:37:50.144Z,15.60
2023-02-16T05:41:53.324Z,15.18
2023-02-16T05:45:56.519Z,14.73
2023-02-16T05:49:59.687Z,16.73
2023-02-16T05:54:04.362Z,14.95
2023-02-16T05:58:07.871Z,19.25
2023-02-16T06:02:10.953Z,15.48
2023-02-16T06:06:14.379Z,16.88
2023-02-16T06:10:19.202Z,15.75
2023-02-16T06:14:22.228Z,15.15
2023-02-16T06:18:26.177Z,16.23
2023-02-16T06:22:29.088Z,16.45
2023-02-16T06:26:33.352Z,14.63
2023-02-16T06:30:36.531Z,14.80
2023-02-16T06:34:39.458Z,16.63
2023-02-16T06:38:42.665Z,16.55
2023-02-16T06:42:47.190Z,14.98
2023-02-16T06:46:50.229Z,17.27
2023-02-16T06:50:53.621Z,16.30
2023-02-16T06:54:56.413Z,15.10
2023-02-16T06:59:00.770Z,16.35
2023-02-16T07:03:03.590Z,16.38
2023-02-16T07:07:06.478Z,16.70
2023-02-16T07:11:09.350Z,16.63
2023-02-16T07:15:13.813Z,18.85
2023-02-16T07:19:16.797Z,18.23
2023-02-16T07:23:19.591Z,23.10
2023-02-16T07:27:22.737Z,20.70
2023-02-16T07:31:27.359Z,18.77
2023-02-16T07:35:30.394Z,19.75
2023-02-16T07:39:34.165Z,22.08
2023-02-16T07:43:37.299Z,22.42
2023-02-16T07:47:41.412Z,23.80
2023-02-16T07:51:44.954Z,25.00
2023-02-16T07:55:48.201Z,27.10
2023-02-16T07:59:52.571Z,32.40
2023-02-16T08:04:06.375Z,32.25
2023-02-16T08:08:12.674Z,31.75
2023-02-16T08:12:17.056Z,37.25
2023-02-16T08:16:21.893Z,30.25
2023-02-16T08:24:50.232Z,37.28
2023-02-16T08:28:58.656Z,35.75
2023-02-16T08:33:09.035Z,43.55
2023-02-16T08:37:17.963Z,47.78
2023-02-16T08:41:22.314Z,43.55
2023-02-16T08:45:25.917Z,36.63
2023-02-16T08:49:31.862Z,40.22
2023-02-16T08:53:37.631Z,43.25
2023-02-16T08:57:44.190Z,43.67
2023-02-16T09:01:48.394Z,41.55
2023-02-16T09:05:53.304Z,44.28
2023-02-16T09:09:58.188Z,38.72
2023-02-16T09:14:01.023Z,38.05
2023-02-16T09:18:04.154Z,38.33
2023-02-16T09:22:06.996Z,49.38
2023-02-16T09:26:11.910Z,29.23
2023-02-16T09:30:15.626Z,33.97
2023-02-16T09:34:20.346Z,29.55
2023-02-16T09:38:23.494Z,28.05
2023-02-16T09:42:34.608Z,28.17
2023-02-16T09:46:38.146Z,32.72
2023-02-16T09:50:53.442Z,29.92
2023-02-16T09:54:59.572Z,33.55
2023-02-16T09:59:11.364Z,24.73
2023-02-16T10:03:28.896Z,24.15
2023-02-16T10:07:41.248Z,23.75
2023-02-16T10:11:48.927Z,23.75
2023-02-16T10:15:56.189Z,23.42
2023-02-16T10:20:01.823Z,22.33
2023-02-16T10:24:07.607Z,17.67
2023-02-16T10:28:17.631Z,18.70
2023-02-16T10:32:29.270Z,19.67
2023-02-16T10:36:44.478Z,19.05
2023-02-16T10:40:55.466Z,20.65
2023-02-16T10:45:03.248Z,20.13
2023-02-16T10:49:11.228Z,17.30
2023-02-16T10:53:16.242Z,18.27
2023-02-16T10:57:27.153Z,17.15
2023-02-16T11:01:36.160Z,17.27
2023-02-16T11:05:42.189Z,17.02
2023-02-16T11:09:47.291Z,16.00
2023-02-16T11:13:58.839Z,16.13
2023-02-16T11:18:06.403Z,16.23
2023-02-16T11:22:26.940Z,16.30
2023-02-16T11:26:38.875Z,14.60
2023-02-16T11:30:43.881Z,13.02
2023-02-16T11:34:50.455Z,13.23
2023-02-16T11:39:05.736Z,14.00
2023-02-16T11:43:13.902Z,14.73
2023-02-16T11:47:24.757Z,13.88
2023-02-16T11:51:35.014Z,13.50
2023-02-16T11:55:44.608Z,12.73
2023-02-16T11:59:47.567Z,14.77
2023-02-16T12:04:01.800Z,13.45
2023-02-16T12:08:30.640Z,13.30
2023-02-16T12:12:47.764Z,12.93
2023-02-16T12:16:55.888Z,13.73
2023-02-16T12:21:04.929Z,13.07
2023-02-16T12:25:28.534Z,13.80
2023-02-16T12:29:39.710Z,12.73
2023-02-16T12:33:49.574Z,13.38
2023-02-16T12:42:19.898Z,14.15
2023-02-16T12:46:29.964Z,13.20
2023-02-16T12:50:34.100Z,12.98
2023-02-16T12:54:43.649Z,12.43
2023-02-16T12:58:50.074Z,11.80
2023-02-16T13:03:13.413Z,11.25
2023-02-16T13:07:19.798Z,13.77
2023-02-16T13:11:25.999Z,13.05
2023-02-16T13:15:34.479Z,10.80
2023-02-16T13:19:38.964Z,9.77
2023-02-16T13:24:01.760Z,10.35
2023-02-16T13:28:26.046Z,21.98
2023-02-16T13:32:46.909Z,10.98
2023-02-16T13:37:09.523Z,9.48
2023-02-16T13:41:30.652Z,9.48
2023-02-16T13:45:35.794Z,8.65
2023-02-16T13:49:43.169Z,8.70
2023-02-16T13:53:53.741Z,8.43
2023-02-16T13:58:01.813Z,6.35
2023-02-16T14:02:06.142Z,6.70
2023-02-16T14:06:37.045Z,7.15
2023-02-16T14:11:09.665Z,7.35
2023-02-16T14:15:20.565Z,7.63
2023-02-16T14:19:25.996Z,7.38
2023-02-16T14:23:34.571Z,7.30
2023-02-16T14:27:45.673Z,7.70
2023-02-16T14:31:52.392Z,7.40
2023-02-16T14:36:09.390Z,6.60
2023-02-16T14:40:16.942Z,10.45
2023-02-16T14:44:35.625Z,9.90
2023-02-16T14:49:17.381Z,9.70
2023-02-16T14:53:58.224Z,9.57
2023-02-16T14:58:05.295Z,8.55
2023-02-16T15:02:28.246Z,8.02
2023-02-16T15:06:34.499Z,9.07
2023-02-16T15:10:40.726Z,8.32
2023-02-16T15:14:46.017Z,11.05
2023-02-16T15:18:52.924Z,10.73
2023-02-16T15:22:57.420Z,14.68
2023-02-16T15:27:01.698Z,15.45
2023-02-16T15:31:07.021Z,12.10
2023-02-16T15:35:23.869Z,28.52
2023-02-16T15:39:42.724Z,24.83
2023-02-16T15:43:52.244Z,15.50
2023-02-16T15:52:01.088Z,16.17
2023-02-16T15:56:06.238Z,15.43
2023-02-16T16:00:18.176Z,17.05
2023-02-16T16:04:23.403Z,16.60
2023-02-16T16:08:29.597Z,23.55
2023-02-16T16:12:32.400Z,14.07
2023-02-16T16:16:36.163Z,12.68
2023-02-16T16:20:41.757Z,17.30
2023-02-16T16:24:48.618Z,12.88
2023-02-16T16:28:52.083Z,9.70
2023-02-16T16:33:02.535Z,15.68
2023-02-16T16:37:08.684Z,12.52
2023-02-16T16:41:30.711Z,12.43
2023-02-16T16:45:41.103Z,10.52
2023-02-16T16:49:51.058Z,9.70
2023-02-16T16:53:55.447Z,9.73
2023-02-16T16:58:01.363Z,9.93
2023-02-16T17:02:04.667Z,9.50
2023-02-16T17:06:08.596Z,10.73
2023-02-16T17:10:12.163Z,10.18
2023-02-16T17:14:18.975Z,10.55
2023-02-16T17:18:23.457Z,10.52
2023-02-16T17:22:26.978Z,10.52
2023-02-16T17:26:30.333Z,10.70
2023-02-16T17:30:35.622Z,10.55
2023-02-16T17:34:40.204Z,11.02
2023-02-16T17:38:44.201Z,10.35
2023-02-16T17:42:48.197Z,11.10
2023-02-16T17:46:54.660Z,10.70
2023-02-16T17:50:58.309Z,12.50
2023-02-16T17:55:01.492Z,13.38
2023-02-16T17:59:05.308Z,14.98
2023-02-16T18:03:10.209Z,16.27
2023-02-16T18:07:14.385Z,14.75
2023-02-16T18:11:17.865Z,13.57
2023-02-16T18:15:21.232Z,14.93
2023-02-16T18:19:26.076Z,13.38
2023-02-16T18:23:29.498Z,13.82
2023-02-16T18:27:32.821Z,13.50
2023-02-16T18:31:36.052Z,13.15
2023-02-16T18:35:41.155Z,12.40
2023-02-16T18:39:44.265Z,13.23
2023-02-16T18:43:47.833Z,13.05
2023-02-16T18:47:51.069Z,13.27
2023-02-16T18:51:55.900Z,12.95
2023-02-16T18:55:59.181Z,15.18
2023-02-16T19:00:02.598Z,13.30
2023-02-16T19:04:06.959Z,13.10
2023-02-16T19:08:12.057Z,14.63
2023-02-16T19:12:15.076Z,13.23
2023-02-16T19:16:18.565Z,13.32
2023-02-16T19:20:21.909Z,14.93
2023-02-16T19:24:27.174Z,14.45
2023-02-16T19:28:30.314Z,13.65
2023-02-16T19:32:33.672Z,13.77
2023-02-16T19:36:36.894Z,17.83
2023-02-16T19:40:41.614Z,15.10
2023-02-16T19:44:44.867Z,13.82
2023-02-16T19:48:48.352Z,14.77
2023-02-16T19:52:52.061Z,14.73
2023-02-16T19:56:57.897Z,13.15
2023-02-16T20:01:07.474Z,15.57
2023-02-16T20:05:11.472Z,14.95
2023-02-16T20:09:14.915Z,14.15
2023-02-16T20:13:20.024Z,12.90
2023-02-16T20:17:23.415Z,13.80
2023-02-16T20:21:28.373Z,14.55
2023-02-16T20:25:31.761Z,14.10
2023-02-16T20:29:36.649Z,14.35
2023-02-16T20:33:40.197Z,14.13
2023-02-16T20:37:43.943Z,14.73
2023-02-16T20:41:47.518Z,15.45
2023-02-16T20:45:52.417Z,17.70
2023-02-16T20:49:55.626Z,16.20
2023-02-16T20:54:00.463Z,14.98
2023-02-16T20:58:03.691Z,15.45
2023-02-16T21:02:08.689Z,16.77
2023-02-16T21:06:15.031Z,17.60
2023-02-16T21:10:18.596Z,17.35
2023-02-16T21:14:21.942Z,20.50
2023-02-16T21:18:26.951Z,20.17
2023-02-16T21:22:30.768Z,16.90
2023-02-16T21:26:34.207Z,16.20
2023-02-16T21:30:37.637Z,16.30
2023-02-16T21:34:42.289Z,14.65
2023-02-16T21:38:47.399Z,15.93
2023-02-16T21:42:51.918Z,16.92
2023-02-16T21:46:55.618Z,18.92
2023-02-16T21:51:02.662Z,17.27
2023-02-16T21:55:32.255Z,19.23
2023-02-16T21:59:35.628Z,17.73
2023-02-16T22:03:39.087Z,20.63
2023-02-16T22:07:43.794Z,16.23
2023-02-16T22:11:47.565Z,15.80
2023-02-16T22:15:51.197Z,17.50
2023-02-16T22:19:54.417Z,16.80
2023-02-16T22:24:00.969Z,19.15
2023-02-16T22:28:04.513Z,15.60
2023-02-16T22:32:07.988Z,19.77
2023-02-16T22:36:15.217Z,16.38
2023-02-16T22:40:20.080Z,17.42
2023-02-16T22:44:23.368Z,17.13
2023-02-16T22:48:27.346Z,18.08
2023-02-16T22:52:30.695Z,17.45
2023-02-16T22:56:36.195Z,19.10
2023-02-16T23:00:39.684Z,16.35
2023-02-16T23:04:43.367Z,19.20
2023-02-16T23:08:48.828Z,15.30
2023-02-16T23:12:53.677Z,18.50
2023-02-16T23:16:57.013Z,18.33
2023-02-16T23:21:06.592Z,15.73
2023-02-16T23:25:27.005Z,16.42
2023-02-16T23:29:31.756Z,15.82
2023-02-16T23:33:35.178Z,17.75
2023-02-16T23:37:38.465Z,18.63
2023-02-16T23:41:42.861Z,17.88
2023-02-16T23:45:48.021Z,19.77
2023-02-16T23:49:51.592Z,16.77
2023-02-16T23:53:55.159Z,20.35
2023-02-16T23:57:58.425Z,16.42
